sensor_id;sensor_type;location;lat;lon;timestamp;P1;durP1;ratioP1;P2;durP2;ratioP2
61673;SDS011;47573;43.832;5.974;2023-04-24T00:04:02;253.60;;;174.93;;
61673;SDS011;47573;43.832;5.974;2023-04-24T00:10:44;253.32;;;171.00;;
61673;SDS011;47573;43.832;5.974;2023-04-24T00:17:25;256.15;;;170.05;;
61673;SDS011;47573;43.832;5.974;2023-04-24T00:24:05;244.18;;;165.60;;
61673;SDS011;47573;43.832;5.974;2023-04-24T00:30:48;242.50;;;163.85;;
61673;SDS011;47573;43.832;5.974;2023-04-24T00:37:28;228.88;;;157.00;;
61673;SDS011;47573;43.832;5.974;2023-04-24T00:44:09;228.47;;;152.50;;
61673;SDS011;47573;43.832;5.974;2023-04-24T00:50:50;223.40;;;145.77;;
61673;SDS011;47573;43.832;5.974;2023-04-24T00:57:31;211.00;;;141.90;;
61673;SDS011;47573;43.832;5.974;2023-04-24T01:04:12;205.98;;;138.30;;
61673;SDS011;47573;43.832;5.974;2023-04-24T01:10:54;205.07;;;137.63;;
61673;SDS011;47573;43.832;5.974;2023-04-24T01:17:36;199.35;;;132.20;;
61673;SDS011;47573;43.832;5.974;2023-04-24T01:24:18;199.07;;;132.10;;
61673;SDS011;47573;43.832;5.974;2023-04-24T01:30:59;194.30;;;128.90;;
61673;SDS011;47573;43.832;5.974;2023-04-24T01:37:40;183.27;;;123.40;;
61673;SDS011;47573;43.832;5.974;2023-04-24T01:44:22;184.70;;;123.28;;
61673;SDS011;47573;43.832;5.974;2023-04-24T01:51:03;180.57;;;120.15;;
61673;SDS011;47573;43.832;5.974;2023-04-24T01:57:43;170.47;;;115.33;;
61673;SDS011;47573;43.832;5.974;2023-04-24T02:04:25;171.55;;;114.95;;
61673;SDS011;47573;43.832;5.974;2023-04-24T02:11:06;167.95;;;113.13;;
61673;SDS011;47573;43.832;5.974;2023-04-24T02:17:48;167.75;;;111.93;;
61673;SDS011;47573;43.832;5.974;2023-04-24T02:24:30;162.83;;;108.10;;
61673;SDS011;47573;43.832;5.974;2023-04-24T02:31:10;156.20;;;107.38;;
61673;SDS011;47573;43.832;5.974;2023-04-24T02:37:51;152.65;;;104.30;;
61673;SDS011;47573;43.832;5.974;2023-04-24T02:44:32;158.03;;;104.07;;
61673;SDS011;47573;43.832;5.974;2023-04-24T02:51:13;151.32;;;101.40;;
61673;SDS011;47573;43.832;5.974;2023-04-24T02:57:54;147.50;;;98.83;;
61673;SDS011;47573;43.832;5.974;2023-04-24T03:04:36;148.40;;;99.15;;
61673;SDS011;47573;43.832;5.974;2023-04-24T03:11:16;139.07;;;95.07;;
61673;SDS011;47573;43.832;5.974;2023-04-24T03:17:56;142.63;;;96.00;;
61673;SDS011;47573;43.832;5.974;2023-04-24T03:24:39;135.00;;;90.35;;
61673;SDS011;47573;43.832;5.974;2023-04-24T03:31:19;132.90;;;89.90;;
61673;SDS011;47573;43.832;5.974;2023-04-24T03:38:00;129.30;;;85.70;;
61673;SDS011;47573;43.832;5.974;2023-04-24T03:44:41;123.38;;;82.70;;
61673;SDS011;47573;43.832;5.974;2023-04-24T03:51:22;119.00;;;79.32;;
61673;SDS011;47573;43.832;5.974;2023-04-24T03:58:02;120.03;;;80.13;;
61673;SDS011;47573;43.832;5.974;2023-04-24T04:04:44;115.20;;;76.60;;
61673;SDS011;47573;43.832;5.974;2023-04-24T04:11:25;110.95;;;73.90;;
61673;SDS011;47573;43.832;5.974;2023-04-24T04:18:05;110.80;;;72.32;;
61673;SDS011;47573;43.832;5.974;2023-04-24T04:24:47;110.87;;;72.37;;
61673;SDS011;47573;43.832;5.974;2023-04-24T04:31:28;107.22;;;69.63;;
61673;SDS011;47573;43.832;5.974;2023-04-24T04:38:09;103.32;;;66.93;;
61673;SDS011;47573;43.832;5.974;2023-04-24T04:44:50;101.22;;;65.50;;
61673;SDS011;47573;43.832;5.974;2023-04-24T04:51:31;102.82;;;64.82;;
61673;SDS011;47573;43.832;5.974;2023-04-24T04:58:12;98.67;;;63.07;;
61673;SDS011;47573;43.832;5.974;2023-04-24T05:04:53;98.28;;;62.92;;
61673;SDS011;47573;43.832;5.974;2023-04-24T05:11:34;91.80;;;59.33;;
61673;SDS011;47573;43.832;5.974;2023-04-24T05:18:14;85.90;;;56.03;;
61673;SDS011;47573;43.832;5.974;2023-04-24T05:24:56;69.57;;;43.17;;
61673;SDS011;47573;43.832;5.974;2023-04-24T05:31:37;268.90;;;93.70;;
61673;SDS011;47573;43.832;5.974;2023-04-24T05:38:17;51.77;;;22.67;;
61673;SDS011;47573;43.832;5.974;2023-04-24T05:44:59;50.70;;;21.20;;
61673;SDS011;47573;43.832;5.974;2023-04-24T05:51:40;50.05;;;20.52;;
61673;SDS011;47573;43.832;5.974;2023-04-24T05:58:20;54.57;;;18.00;;
61673;SDS011;47573;43.832;5.974;2023-04-24T06:05:02;205.80;;;48.53;;
61673;SDS011;47573;43.832;5.974;2023-04-24T06:11:43;326.07;;;98.03;;
61673;SDS011;47573;43.832;5.974;2023-04-24T06:18:23;220.13;;;65.23;;
61673;SDS011;47573;43.832;5.974;2023-04-24T06:25:06;22.83;;;13.00;;
61673;SDS011;47573;43.832;5.974;2023-04-24T06:31:47;16.08;;;10.38;;
61673;SDS011;47573;43.832;5.974;2023-04-24T06:38:27;15.07;;;10.23;;
61673;SDS011;47573;43.832;5.974;2023-04-24T06:45:10;19.55;;;13.02;;
61673;SDS011;47573;43.832;5.974;2023-04-24T06:51:50;18.67;;;12.95;;
61673;SDS011;47573;43.832;5.974;2023-04-24T06:58:31;20.50;;;13.13;;
61673;SDS011;47573;43.832;5.974;2023-04-24T07:05:13;21.15;;;12.85;;
61673;SDS011;47573;43.832;5.974;2023-04-24T07:11:54;20.15;;;12.90;;
61673;SDS011;47573;43.832;5.974;2023-04-24T07:18:34;399.80;;;126.72;;
61673;SDS011;47573;43.832;5.974;2023-04-24T07:25:16;98.18;;;29.38;;
61673;SDS011;47573;43.832;5.974;2023-04-24T07:31:57;633.38;;;250.57;;
61673;SDS011;47573;43.832;5.974;2023-04-24T07:38:37;261.20;;;67.23;;
61673;SDS011;47573;43.832;5.974;2023-04-24T07:45:19;81.13;;;25.37;;
61673;SDS011;47573;43.832;5.974;2023-04-24T07:51:59;31.83;;;14.60;;
61673;SDS011;47573;43.832;5.974;2023-04-24T07:58:40;59.42;;;21.23;;
61673;SDS011;47573;43.832;5.974;2023-04-24T08:05:22;25.57;;;14.23;;
61673;SDS011;47573;43.832;5.974;2023-04-24T08:12:02;33.08;;;15.02;;
61673;SDS011;47573;43.832;5.974;2023-04-24T08:18:43;19.75;;;12.68;;
61673;SDS011;47573;43.832;5.974;2023-04-24T08:25:25;708.33;;;372.83;;
61673;SDS011;47573;43.832;5.974;2023-04-24T08:32:05;224.23;;;71.57;;
61673;SDS011;47573;43.832;5.974;2023-04-24T08:38:46;493.90;;;167.00;;
61673;SDS011;47573;43.832;5.974;2023-04-24T08:45:28;34.92;;;15.30;;
61673;SDS011;47573;43.832;5.974;2023-04-24T08:52:09;16.05;;;11.23;;
61673;SDS011;47573;43.832;5.974;2023-04-24T08:58:50;15.48;;;10.30;;
61673;SDS011;47573;43.832;5.974;2023-04-24T09:05:32;14.98;;;10.48;;
61673;SDS011;47573;43.832;5.974;2023-04-24T09:12:13;14.63;;;9.68;;
61673;SDS011;47573;43.832;5.974;2023-04-24T09:18:55;14.48;;;9.77;;
61673;SDS011;47573;43.832;5.974;2023-04-24T09:25:37;13.60;;;10.15;;
61673;SDS011;47573;43.832;5.974;2023-04-24T09:32:18;14.05;;;10.35;;
61673;SDS011;47573;43.832;5.974;2023-04-24T09:38:59;14.95;;;10.35;;
61673;SDS011;47573;43.832;5.974;2023-04-24T09:45:42;12.63;;;9.20;;
61673;SDS011;47573;43.832;5.974;2023-04-24T09:52:22;11.98;;;9.15;;
61673;SDS011;47573;43.832;5.974;2023-04-24T09:59:06;14.93;;;9.13;;
61673;SDS011;47573;43.832;5.974;2023-04-24T10:05:48;14.02;;;9.60;;
61673;SDS011;47573;43.832;5.974;2023-04-24T10:12:31;13.45;;;9.63;;
61673;SDS011;47573;43.832;5.974;2023-04-24T10:19:12;12.20;;;8.82;;
61673;SDS011;47573;43.832;5.974;2023-04-24T10:25:54;12.43;;;9.27;;
61673;SDS011;47573;43.832;5.974;2023-04-24T10:32:36;13.98;;;8.77;;
61673;SDS011;47573;43.832;5.974;2023-04-24T10:39:16;12.07;;;8.90;;
61673;SDS011;47573;43.832;5.974;2023-04-24T10:46:03;12.90;;;8.80;;
61673;SDS011;47573;43.832;5.974;2023-04-24T10:52:45;13.05;;;8.80;;
61673;SDS011;47573;43.832;5.974;2023-04-24T10:59:27;11.93;;;8.43;;
61673;SDS011;47573;43.832;5.974;2023-04-24T11:06:16;11.95;;;8.60;;
61673;SDS011;47573;43.832;5.974;2023-04-24T11:13:08;11.50;;;8.02;;
61673;SDS011;47573;43.832;5.974;2023-04-24T11:19:49;10.83;;;8.10;;
61673;SDS011;47573;43.832;5.974;2023-04-24T11:26:32;11.73;;;7.63;;
61673;SDS011;47573;43.832;5.974;2023-04-24T11:33:19;11.02;;;8.13;;
61673;SDS011;47573;43.832;5.974;2023-04-24T11:40:00;11.47;;;8.23;;
61673;SDS011;47573;43.832;5.974;2023-04-24T11:46:42;10.68;;;7.57;;
61673;SDS011;47573;43.832;5.974;2023-04-24T11:53:23;11.40;;;7.63;;
61673;SDS011;47573;43.832;5.974;2023-04-24T12:00:04;9.40;;;7.28;;
61673;SDS011;47573;43.832;5.974;2023-04-24T12:07:02;11.35;;;7.70;;
61673;SDS011;47573;43.832;5.974;2023-04-24T12:13:43;12.65;;;7.35;;
61673;SDS011;47573;43.832;5.974;2023-04-24T12:20:24;11.15;;;7.22;;
61673;SDS011;47573;43.832;5.974;2023-04-24T12:27:08;11.52;;;7.35;;
61673;SDS011;47573;43.832;5.974;2023-04-24T12:33:59;9.23;;;7.20;;
61673;SDS011;47573;43.832;5.974;2023-04-24T12:40:41;10.40;;;7.53;;
61673;SDS011;47573;43.832;5.974;2023-04-24T12:47:23;9.68;;;7.47;;
61673;SDS011;47573;43.832;5.974;2023-04-24T12:54:04;10.35;;;7.35;;
61673;SDS011;47573;43.832;5.974;2023-04-24T13:00:44;9.43;;;7.72;;
61673;SDS011;47573;43.832;5.974;2023-04-24T13:07:27;9.70;;;7.63;;
61673;SDS011;47573;43.832;5.974;2023-04-24T13:14:07;9.80;;;7.93;;
61673;SDS011;47573;43.832;5.974;2023-04-24T13:20:51;10.50;;;8.13;;
61673;SDS011;47573;43.832;5.974;2023-04-24T13:27:32;10.75;;;8.32;;
61673;SDS011;47573;43.832;5.974;2023-04-24T13:34:13;10.75;;;8.23;;
61673;SDS011;47573;43.832;5.974;2023-04-24T13:40:53;10.05;;;7.85;;
61673;SDS011;47573;43.832;5.974;2023-04-24T13:47:35;9.80;;;8.10;;
61673;SDS011;47573;43.832;5.974;2023-04-24T13:54:16;9.63;;;8.10;;
61673;SDS011;47573;43.832;5.974;2023-04-24T14:00:56;10.73;;;8.93;;
61673;SDS011;47573;43.832;5.974;2023-04-24T14:07:38;10.53;;;8.20;;
61673;SDS011;47573;43.832;5.974;2023-04-24T14:14:19;10.63;;;8.70;;
61673;SDS011;47573;43.832;5.974;2023-04-24T14:20:59;17.07;;;13.80;;
61673;SDS011;47573;43.832;5.974;2023-04-24T14:27:41;77.78;;;37.80;;
61673;SDS011;47573;43.832;5.974;2023-04-24T14:34:22;557.93;;;184.80;;
61673;SDS011;47573;43.832;5.974;2023-04-24T14:41:02;100.40;;;51.20;;
61673;SDS011;47573;43.832;5.974;2023-04-24T14:47:44;113.20;;;52.57;;
61673;SDS011;47573;43.832;5.974;2023-04-24T14:54:25;53.93;;;40.40;;
61673;SDS011;47573;43.832;5.974;2023-04-24T15:01:05;227.63;;;95.32;;
61673;SDS011;47573;43.832;5.974;2023-04-24T15:07:47;828.03;;;314.13;;
61673;SDS011;47573;43.832;5.974;2023-04-24T15:14:28;99.20;;;65.20;;
61673;SDS011;47573;43.832;5.974;2023-04-24T15:21:09;1955.47;;;752.60;;
61673;SDS011;47573;43.832;5.974;2023-04-24T15:27:50;95.27;;;68.67;;
61673;SDS011;47573;43.832;5.974;2023-04-24T15:34:31;86.77;;;63.07;;
61673;SDS011;47573;43.832;5.974;2023-04-24T15:41:11;100.60;;;73.07;;
61673;SDS011;47573;43.832;5.974;2023-04-24T15:47:53;140.75;;;101.55;;
61673;SDS011;47573;43.832;5.974;2023-04-24T15:54:35;149.60;;;107.97;;
61673;SDS011;47573;43.832;5.974;2023-04-24T16:01:15;152.77;;;108.43;;
61673;SDS011;47573;43.832;5.974;2023-04-24T16:07:57;184.17;;;128.97;;
61673;SDS011;47573;43.832;5.974;2023-04-24T16:14:37;202.20;;;143.00;;
61673;SDS011;47573;43.832;5.974;2023-04-24T16:21:18;199.00;;;141.20;;
61673;SDS011;47573;43.832;5.974;2023-04-24T16:28:00;197.63;;;142.90;;
61673;SDS011;47573;43.832;5.974;2023-04-24T16:34:41;233.33;;;166.93;;
61673;SDS011;47573;43.832;5.974;2023-04-24T16:59:58;269.92;;;203.48;;
61673;SDS011;47573;43.832;5.974;2023-04-24T17:06:38;282.23;;;219.00;;
61673;SDS011;47573;43.832;5.974;2023-04-24T17:13:19;306.67;;;237.52;;
61673;SDS011;47573;43.832;5.974;2023-04-24T17:20:01;261.67;;;194.37;;
61673;SDS011;47573;43.832;5.974;2023-04-24T17:26:42;292.70;;;225.05;;
61673;SDS011;47573;43.832;5.974;2023-04-24T17:33:22;306.30;;;232.38;;
61673;SDS011;47573;43.832;5.974;2023-04-24T17:40:05;354.77;;;272.48;;
61673;SDS011;47573;43.832;5.974;2023-04-24T17:46:46;343.95;;;260.50;;
61673;SDS011;47573;43.832;5.974;2023-04-24T17:53:27;89.63;;;62.30;;
61673;SDS011;47573;43.832;5.974;2023-04-24T18:00:12;66.73;;;47.17;;
61673;SDS011;47573;43.832;5.974;2023-04-24T18:06:53;68.50;;;47.67;;
61673;SDS011;47573;43.832;5.974;2023-04-24T18:13:33;129.60;;;87.57;;
61673;SDS011;47573;43.832;5.974;2023-04-24T18:20:16;187.57;;;128.40;;
61673;SDS011;47573;43.832;5.974;2023-04-24T18:26:57;258.20;;;183.35;;
61673;SDS011;47573;43.832;5.974;2023-04-24T18:33:38;285.45;;;208.18;;
61673;SDS011;47573;43.832;5.974;2023-04-24T18:40:19;361.75;;;269.83;;
61673;SDS011;47573;43.832;5.974;2023-04-24T18:47:00;374.17;;;279.58;;
61673;SDS011;47573;43.832;5.974;2023-04-24T18:53:40;391.33;;;294.10;;
61673;SDS011;47573;43.832;5.974;2023-04-24T19:00:22;401.27;;;302.30;;
61673;SDS011;47573;43.832;5.974;2023-04-24T19:07:03;411.23;;;310.63;;
61673;SDS011;47573;43.832;5.974;2023-04-24T19:13:43;391.92;;;297.80;;
61673;SDS011;47573;43.832;5.974;2023-04-24T19:20:25;390.00;;;290.23;;
61673;SDS011;47573;43.832;5.974;2023-04-24T19:27:05;423.75;;;319.42;;
61673;SDS011;47573;43.832;5.974;2023-04-24T19:33:46;442.70;;;330.80;;
61673;SDS011;47573;43.832;5.974;2023-04-24T19:40:28;429.77;;;325.40;;
61673;SDS011;47573;43.832;5.974;2023-04-24T19:47:08;432.97;;;324.03;;
61673;SDS011;47573;43.832;5.974;2023-04-24T19:53:49;426.17;;;318.60;;
61673;SDS011;47573;43.832;5.974;2023-04-24T20:00:31;417.60;;;310.83;;
61673;SDS011;47573;43.832;5.974;2023-04-24T20:07:11;454.30;;;323.33;;
61673;SDS011;47573;43.832;5.974;2023-04-24T20:13:52;429.45;;;317.75;;
61673;SDS011;47573;43.832;5.974;2023-04-24T20:20:33;452.43;;;329.17;;
61673;SDS011;47573;43.832;5.974;2023-04-24T20:27:14;457.70;;;340.33;;
61673;SDS011;47573;43.832;5.974;2023-04-24T20:33:55;456.90;;;334.25;;
61673;SDS011;47573;43.832;5.974;2023-04-24T20:40:37;449.85;;;331.48;;
61673;SDS011;47573;43.832;5.974;2023-04-24T20:47:17;503.43;;;347.50;;
61673;SDS011;47573;43.832;5.974;2023-04-24T20:53:58;452.37;;;329.83;;
61673;SDS011;47573;43.832;5.974;2023-04-24T21:00:39;450.63;;;326.97;;
61673;SDS011;47573;43.832;5.974;2023-04-24T21:07:20;461.20;;;334.63;;
61673;SDS011;47573;43.832;5.974;2023-04-24T21:14:00;462.13;;;336.57;;
61673;SDS011;47573;43.832;5.974;2023-04-24T21:20:42;463.07;;;336.80;;
61673;SDS011;47573;43.832;5.974;2023-04-24T21:27:23;475.27;;;353.37;;
61673;SDS011;47573;43.832;5.974;2023-04-24T21:34:03;484.48;;;359.92;;
61673;SDS011;47573;43.832;5.974;2023-04-24T21:40:45;478.60;;;353.53;;
61673;SDS011;47573;43.832;5.974;2023-04-24T21:47:26;494.63;;;366.17;;
61673;SDS011;47573;43.832;5.974;2023-04-24T21:54:06;495.20;;;367.90;;
61673;SDS011;47573;43.832;5.974;2023-04-24T22:00:48;500.93;;;370.53;;
61673;SDS011;47573;43.832;5.974;2023-04-24T22:07:28;502.98;;;378.85;;
61673;SDS011;47573;43.832;5.974;2023-04-24T22:14:09;503.83;;;378.80;;
61673;SDS011;47573;43.832;5.974;2023-04-24T22:20:51;497.63;;;371.27;;
61673;SDS011;47573;43.832;5.974;2023-04-24T22:27:31;494.20;;;364.45;;
61673;SDS011;47573;43.832;5.974;2023-04-24T22:34:12;503.73;;;374.98;;
61673;SDS011;47573;43.832;5.974;2023-04-24T22:40:54;511.00;;;383.83;;
61673;SDS011;47573;43.832;5.974;2023-04-24T22:47:34;521.75;;;398.38;;
61673;SDS011;47573;43.832;5.974;2023-04-24T22:54:15;508.07;;;385.53;;
61673;SDS011;47573;43.832;5.974;2023-04-24T23:00:57;514.77;;;385.00;;
61673;SDS011;47573;43.832;5.974;2023-04-24T23:07:37;510.40;;;384.47;;
61673;SDS011;47573;43.832;5.974;2023-04-24T23:14:18;506.70;;;381.03;;
61673;SDS011;47573;43.832;5.974;2023-04-24T23:21:00;501.20;;;372.07;;
61673;SDS011;47573;43.832;5.974;2023-04-24T23:27:40;490.75;;;364.63;;
61673;SDS011;47573;43.832;5.974;2023-04-24T23:34:21;494.33;;;361.90;;
61673;SDS011;47573;43.832;5.974;2023-04-24T23:41:03;491.43;;;360.40;;
61673;SDS011;47573;43.832;5.974;2023-04-24T23:47:43;484.03;;;354.87;;
61673;SDS011;47573;43.832;5.974;2023-04-24T23:54:24;475.47;;;351.57;;
